createdAt,value
2023-08-06T00:01:45.664Z,14.21
2023-08-06T00:04:16.916Z,14.22
2023-08-06T00:06:48.109Z,14.22
2023-08-06T00:09:19.301Z,14.24
2023-08-06T00:11:50.680Z,14.24
2023-08-06T00:14:21.882Z,14.23
2023-08-06T00:16:52.940Z,14.22
2023-08-06T00:19:24.283Z,14.22
2023-08-06T00:21:55.422Z,14.22
2023-08-06T00:24:26.459Z,14.21
2023-08-06T00:26:57.504Z,14.20
2023-08-06T00:29:28.552Z,14.16
2023-08-06T00:31:59.488Z,14.12
2023-08-06T00:34:30.459Z,14.08
2023-08-06T00:37:01.444Z,14.05
2023-08-06T00:39:32.754Z,14.03
2023-08-06T00:42:03.832Z,14.01
2023-08-06T00:44:34.773Z,14.00
2023-08-06T00:47:06.510Z,13.99
2023-08-06T00:49:37.722Z,13.95
2023-08-06T00:52:10.686Z,13.93
2023-08-06T00:54:43.193Z,13.94
2023-08-06T00:57:15.265Z,13.93
2023-08-06T00:59:46.537Z,13.92
2023-08-06T01:02:17.843Z,13.92
2023-08-06T01:04:49.273Z,13.90
2023-08-06T01:07:30.845Z,13.88
2023-08-06T01:10:29.152Z,13.89
2023-08-06T01:13:11.176Z,13.90
2023-08-06T01:15:48.336Z,13.90
2023-08-06T01:18:19.475Z,13.89
2023-08-06T01:20:52.236Z,13.88
2023-08-06T01:23:23.697Z,13.86
2023-08-06T01:26:05.079Z,13.85
2023-08-06T01:28:46.407Z,13.85
2023-08-06T01:31:21.130Z,13.84
2023-08-06T01:33:54.341Z,13.82
2023-08-06T01:36:26.155Z,13.81
2023-08-06T01:38:58.488Z,13.79
2023-08-06T01:41:29.725Z,13.78
2023-08-06T01:44:00.716Z,13.77
2023-08-06T01:46:31.833Z,13.75
2023-08-06T01:49:02.795Z,13.75
2023-08-06T01:51:33.869Z,13.74
2023-08-06T01:54:05.022Z,13.74
2023-08-06T01:56:36.107Z,13.74
2023-08-06T01:59:07.275Z,13.74
2023-08-06T02:01:38.410Z,13.73
2023-08-06T02:04:09.633Z,13.74
2023-08-06T02:06:41.118Z,13.75
2023-08-06T02:09:12.025Z,13.75
2023-08-06T02:11:43.162Z,13.75
2023-08-06T02:14:15.168Z,13.75
2023-08-06T02:16:46.125Z,13.75
2023-08-06T02:19:17.919Z,13.75
2023-08-06T02:21:49.016Z,13.74
2023-08-06T02:24:20.155Z,13.74
2023-08-06T02:26:52.683Z,13.74
2023-08-06T02:29:24.004Z,13.72
2023-08-06T02:31:55.237Z,13.73
2023-08-06T02:34:27.092Z,13.73
2023-08-06T02:36:58.197Z,13.73
2023-08-06T02:39:29.655Z,13.73
2023-08-06T02:42:00.496Z,13.72
2023-08-06T02:44:32.465Z,13.71
2023-08-06T02:47:04.005Z,13.71
2023-08-06T02:49:35.156Z,13.71
2023-08-06T02:52:06.758Z,13.70
2023-08-06T02:54:37.731Z,13.70
2023-08-06T02:57:09.897Z,13.68
2023-08-06T02:59:40.935Z,13.67
2023-08-06T03:02:12.108Z,13.66
2023-08-06T03:04:44.231Z,13.64
2023-08-06T03:07:15.336Z,13.63
2023-08-06T03:09:46.276Z,13.60
2023-08-06T03:12:17.717Z,13.57
2023-08-06T03:14:48.868Z,13.54
2023-08-06T03:17:19.959Z,13.52
2023-08-06T03:19:51.034Z,13.50
2023-08-06T03:22:22.073Z,13.48
2023-08-06T03:24:55.392Z,13.46
2023-08-06T03:27:26.410Z,13.46
2023-08-06T03:29:58.100Z,13.45
2023-08-06T03:32:29.165Z,13.43
2023-08-06T03:35:00.422Z,13.43
2023-08-06T03:37:32.960Z,13.42
2023-08-06T03:40:05.066Z,13.43
2023-08-06T03:42:36.293Z,13.43
2023-08-06T03:45:08.964Z,13.43
2023-08-06T03:47:40.351Z,13.42
2023-08-06T03:50:12.168Z,13.40
2023-08-06T03:52:43.268Z,13.39
2023-08-06T03:55:14.354Z,13.38
2023-08-06T03:57:45.259Z,13.38
2023-08-06T04:00:16.789Z,13.36
2023-08-06T04:02:47.988Z,13.35
2023-08-06T04:05:19.735Z,13.33
2023-08-06T04:07:50.700Z,13.32
2023-08-06T04:10:21.846Z,13.30
2023-08-06T04:12:52.859Z,13.29
2023-08-06T04:15:23.972Z,13.29
2023-08-06T04:17:55.120Z,13.29
2023-08-06T04:20:26.124Z,13.29
2023-08-06T04:22:57.860Z,13.28
2023-08-06T04:25:28.870Z,13.27
2023-08-06T04:27:59.846Z,13.26
2023-08-06T04:30:30.789Z,13.26
2023-08-06T04:33:01.888Z,13.26
2023-08-06T04:35:33.856Z,13.27
2023-08-06T04:38:04.858Z,13.28
2023-08-06T04:40:38.397Z,13.28
2023-08-06T04:43:09.653Z,13.27
2023-08-06T04:45:47.672Z,13.25
2023-08-06T04:48:18.931Z,13.24
2023-08-06T04:50:51.203Z,13.23
2023-08-06T04:53:22.356Z,13.23
2023-08-06T04:55:53.436Z,13.23
2023-08-06T04:58:24.429Z,13.22
2023-08-06T05:00:56.870Z,13.22
2023-08-06T05:03:28.348Z,13.22
2023-08-06T05:05:59.695Z,13.23
2023-08-06T05:08:31.064Z,13.23
2023-08-06T05:11:02.380Z,13.24
2023-08-06T05:13:33.345Z,13.25
2023-08-06T05:16:04.721Z,13.27
2023-08-06T05:18:38.902Z,13.27
2023-08-06T05:21:10.025Z,13.28
2023-08-06T05:23:40.999Z,13.28
2023-08-06T05:26:12.101Z,13.29
2023-08-06T05:28:43.485Z,13.30
2023-08-06T05:31:14.666Z,13.33
2023-08-06T05:33:45.734Z,13.34
2023-08-06T05:36:18.908Z,13.35
2023-08-06T05:38:50.131Z,13.37
2023-08-06T05:41:21.099Z,13.39
2023-08-06T05:43:52.222Z,13.42
2023-08-06T05:46:23.428Z,13.43
2023-08-06T05:48:54.428Z,13.44
2023-08-06T05:51:25.701Z,13.45
2023-08-06T05:53:56.726Z,13.45
2023-08-06T05:56:27.772Z,13.46
2023-08-06T05:58:58.803Z,13.48
2023-08-06T06:01:29.867Z,13.51
2023-08-06T06:04:00.845Z,13.53
2023-08-06T06:06:32.152Z,13.55
2023-08-06T06:09:03.566Z,13.57
2023-08-06T06:11:34.577Z,13.58
2023-08-06T06:14:05.568Z,13.59
2023-08-06T06:16:36.864Z,13.60
2023-08-06T06:19:07.988Z,13.60
2023-08-06T06:21:40.138Z,13.61
2023-08-06T06:24:11.389Z,13.62
2023-08-06T06:31:15.496Z,13.62
2023-08-06T06:34:52.225Z,13.64
2023-08-06T06:38:03.911Z,13.66
2023-08-06T06:40:41.100Z,13.68
2023-08-06T06:43:24.329Z,13.69
2023-08-06T06:46:13.932Z,13.70
2023-08-06T06:49:03.611Z,13.72
2023-08-06T06:51:55.741Z,13.72
2023-08-06T06:54:32.386Z,13.71
2023-08-06T06:57:15.898Z,13.71
2023-08-06T07:10:45.245Z,13.74
2023-08-06T07:13:17.812Z,13.76
2023-08-06T07:15:48.819Z,13.79
2023-08-06T07:18:19.927Z,13.81
2023-08-06T07:20:54.204Z,13.82
2023-08-06T07:23:26.860Z,13.86
2023-08-06T07:25:57.847Z,13.90
2023-08-06T07:28:29.074Z,13.95
2023-08-06T07:31:00.334Z,13.99
2023-08-06T07:33:31.602Z,14.03
2023-08-06T07:36:09.485Z,14.08
2023-08-06T07:38:40.954Z,14.14
2023-08-06T07:41:12.057Z,14.17
2023-08-06T07:43:43.905Z,14.20
2023-08-06T07:46:15.385Z,14.24
2023-08-06T07:48:47.456Z,14.29
2023-08-06T07:51:19.110Z,14.32
2023-08-06T07:53:50.155Z,14.36
2023-08-06T07:56:21.148Z,14.40
2023-08-06T07:58:52.193Z,14.43
2023-08-06T08:01:23.511Z,14.47
2023-08-06T08:03:54.720Z,14.51
2023-08-06T08:06:26.068Z,14.54
2023-08-06T08:08:57.004Z,14.54
2023-08-06T08:11:28.159Z,14.54
2023-08-06T08:13:59.141Z,14.56
2023-08-06T08:16:30.249Z,14.61
2023-08-06T08:19:01.504Z,14.62
2023-08-06T08:21:32.551Z,14.63
2023-08-06T08:24:06.154Z,14.64
2023-08-06T08:26:37.245Z,14.66
2023-08-06T08:29:08.444Z,14.67
2023-08-06T08:31:40.706Z,14.66
2023-08-06T08:34:11.725Z,14.67
2023-08-06T08:36:42.870Z,14.68
2023-08-06T08:39:13.949Z,14.68
2023-08-06T08:41:46.114Z,14.68
2023-08-06T08:44:18.915Z,14.71
2023-08-06T08:46:51.290Z,14.75
2023-08-06T08:49:25.745Z,14.80
2023-08-06T08:51:58.640Z,14.82
2023-08-06T08:54:31.012Z,14.84
2023-08-06T08:57:01.950Z,14.83
2023-08-06T08:59:34.134Z,14.84
2023-08-06T09:02:06.729Z,14.90
2023-08-06T09:04:38.358Z,14.90
2023-08-06T09:07:10.502Z,14.90
2023-08-06T09:09:46.006Z,14.89
2023-08-06T09:12:19.156Z,14.90
2023-08-06T09:14:50.428Z,14.96
2023-08-06T09:17:21.899Z,14.98
2023-08-06T09:19:53.157Z,14.99
2023-08-06T09:22:24.072Z,14.98
2023-08-06T09:24:55.075Z,14.96
2023-08-06T09:27:26.769Z,14.97
2023-08-06T09:29:57.805Z,15.00
2023-08-06T09:32:29.138Z,15.02
2023-08-06T09:35:01.067Z,15.02
2023-08-06T09:37:39.173Z,14.99
2023-08-06T09:40:28.745Z,15.00
2023-08-06T09:43:01.518Z,15.01
2023-08-06T09:45:35.003Z,15.01
2023-08-06T09:48:07.215Z,15.04
2023-08-06T09:50:39.383Z,15.06
2023-08-06T09:53:11.655Z,15.07
2023-08-06T09:55:43.196Z,15.07
2023-08-06T09:58:15.641Z,15.07
2023-08-06T10:00:46.944Z,15.07
2023-08-06T10:03:19.249Z,15.06
2023-08-06T10:05:51.222Z,15.09
2023-08-06T10:08:23.203Z,15.11
2023-08-06T10:10:55.581Z,15.14
2023-08-06T10:13:27.974Z,15.14
2023-08-06T10:15:59.408Z,15.16
2023-08-06T10:18:31.829Z,15.18
2023-08-06T10:21:03.518Z,15.21
2023-08-06T10:23:42.708Z,15.21
2023-08-06T10:26:17.208Z,15.20
2023-08-06T10:28:48.170Z,15.20
2023-08-06T10:31:19.244Z,15.20
2023-08-06T10:33:50.861Z,15.18
2023-08-06T10:36:21.938Z,15.18
2023-08-06T10:38:55.184Z,15.20
2023-08-06T10:41:32.355Z,15.22
2023-08-06T10:44:11.058Z,15.24
2023-08-06T10:46:42.228Z,15.24
2023-08-06T10:49:15.965Z,15.22
2023-08-06T10:51:47.564Z,15.24
2023-08-06T10:54:19.083Z,15.25
2023-08-06T10:56:50.752Z,15.28
2023-08-06T10:59:22.578Z,15.29
2023-08-06T11:01:54.535Z,15.32
2023-08-06T11:04:26.974Z,15.32
2023-08-06T11:06:57.867Z,15.33
2023-08-06T11:09:28.912Z,15.34
2023-08-06T11:11:59.837Z,15.33
2023-08-06T11:14:32.809Z,15.32
2023-08-06T11:17:04.142Z,15.30
2023-08-06T11:19:36.162Z,15.29
2023-08-06T11:22:07.366Z,15.30
2023-08-06T11:24:39.453Z,15.37
2023-08-06T11:27:16.328Z,15.46
2023-08-06T11:29:46.338Z,15.52
2023-08-06T11:32:18.224Z,15.55
2023-08-06T11:34:49.997Z,15.57
2023-08-06T11:37:26.372Z,15.61
2023-08-06T11:40:01.682Z,15.63
2023-08-06T11:42:36.909Z,15.67
2023-08-06T11:45:10.678Z,15.72
2023-08-06T11:47:43.372Z,15.74
2023-08-06T11:50:26.208Z,15.79
2023-08-06T11:53:02.127Z,15.78
2023-08-06T11:55:33.484Z,15.77
2023-08-06T11:58:06.994Z,15.78
2023-08-06T12:00:38.784Z,15.75
2023-08-06T12:03:10.028Z,15.77
2023-08-06T12:05:41.839Z,15.74
2023-08-06T12:08:12.887Z,15.72
2023-08-06T12:10:44.128Z,15.70
2023-08-06T12:13:15.369Z,15.62
2023-08-06T12:15:46.606Z,15.56
2023-08-06T12:18:17.877Z,15.55
2023-08-06T12:20:49.028Z,15.58
2023-08-06T12:23:20.307Z,15.57
2023-08-06T12:25:51.913Z,15.55
2023-08-06T12:28:24.154Z,15.53
2023-08-06T12:30:56.442Z,15.49
2023-08-06T12:33:28.397Z,15.47
2023-08-06T12:35:59.584Z,15.46
2023-08-06T12:38:34.864Z,15.46
2023-08-06T12:41:05.867Z,15.45
2023-08-06T12:43:37.110Z,15.44
2023-08-06T12:46:08.153Z,15.43
2023-08-06T12:48:39.261Z,15.44
2023-08-06T12:51:10.170Z,15.43
2023-08-06T12:53:41.194Z,15.42
2023-08-06T12:56:12.245Z,15.41
2023-08-06T12:58:43.820Z,15.40
2023-08-06T13:01:14.870Z,15.40
2023-08-06T13:03:46.093Z,15.40
2023-08-06T13:06:17.234Z,15.42
2023-08-06T13:08:48.237Z,15.42
2023-08-06T13:11:20.195Z,15.43
2023-08-06T13:13:54.322Z,15.44
2023-08-06T13:16:25.639Z,15.45
2023-08-06T13:18:56.721Z,15.48
2023-08-06T13:21:33.528Z,15.51
2023-08-06T13:24:04.759Z,15.52
2023-08-06T13:26:35.822Z,15.48
2023-08-06T13:29:08.493Z,15.44
2023-08-06T13:31:39.771Z,15.40
2023-08-06T13:34:10.786Z,15.37
2023-08-06T13:36:42.078Z,15.34
2023-08-06T13:39:13.336Z,15.32
2023-08-06T13:41:44.530Z,15.32
2023-08-06T13:44:16.069Z,15.34
2023-08-06T13:46:46.994Z,15.33
2023-08-06T13:49:18.033Z,15.31
2023-08-06T13:51:49.140Z,15.32
2023-08-06T13:54:21.796Z,15.36
2023-08-06T13:56:54.623Z,15.40
2023-08-06T13:59:26.263Z,15.41
2023-08-06T14:02:00.825Z,15.44
2023-08-06T14:04:31.896Z,15.41
2023-08-06T14:07:03.075Z,15.37
2023-08-06T14:09:35.505Z,15.31
2023-08-06T14:12:06.871Z,15.26
2023-08-06T14:14:38.860Z,15.22
2023-08-06T14:17:09.788Z,15.19
2023-08-06T14:19:40.773Z,15.18
2023-08-06T14:22:11.806Z,15.16
2023-08-06T14:24:43.050Z,15.14
2023-08-06T14:27:14.064Z,15.17
2023-08-06T14:29:45.119Z,15.23
2023-08-06T14:32:19.363Z,15.26
2023-08-06T14:34:50.422Z,15.28
2023-08-06T14:37:21.470Z,15.28
2023-08-06T14:39:55.397Z,15.30
2023-08-06T14:42:26.735Z,15.31
2023-08-06T14:44:57.777Z,15.31
2023-08-06T14:47:28.664Z,15.30
2023-08-06T14:49:59.560Z,15.29
2023-08-06T14:52:30.687Z,15.28
2023-08-06T14:55:03.613Z,15.28
2023-08-06T14:57:34.979Z,15.29
2023-08-06T15:00:07.816Z,15.28
2023-08-06T15:02:38.999Z,15.25
2023-08-06T15:05:10.920Z,15.23
2023-08-06T15:07:41.926Z,15.22
2023-08-06T15:10:25.845Z,15.20
2023-08-06T15:12:58.872Z,15.18
2023-08-06T15:15:30.349Z,15.16
2023-08-06T15:18:01.597Z,15.15
2023-08-06T15:20:33.556Z,15.15
2023-08-06T15:23:04.713Z,15.16
2023-08-06T15:25:35.823Z,15.16
2023-08-06T15:28:08.255Z,15.15
2023-08-06T15:30:40.852Z,15.14
2023-08-06T15:33:11.863Z,15.13
2023-08-06T15:35:42.974Z,15.12
2023-08-06T15:38:14.127Z,15.10
2023-08-06T15:40:46.536Z,15.11
2023-08-06T15:43:17.852Z,15.13
2023-08-06T15:45:49.098Z,15.13
2023-08-06T15:48:20.146Z,15.17
2023-08-06T15:50:51.259Z,15.18
2023-08-06T15:53:22.415Z,15.19
2023-08-06T15:55:53.703Z,15.20
2023-08-06T15:58:24.668Z,15.22
2023-08-06T16:00:55.668Z,15.22
2023-08-06T16:03:26.603Z,15.21
2023-08-06T16:05:58.255Z,15.19
2023-08-06T16:08:30.111Z,15.19
2023-08-06T16:11:01.654Z,15.21
2023-08-06T16:13:33.121Z,15.20
2023-08-06T16:16:04.272Z,15.18
2023-08-06T16:18:35.302Z,15.15
2023-08-06T16:21:06.249Z,15.16
2023-08-06T16:23:37.288Z,15.15
2023-08-06T16:26:08.377Z,15.16
2023-08-06T16:28:39.755Z,15.17
2023-08-06T16:31:11.582Z,15.17
2023-08-06T16:33:44.011Z,15.18
2023-08-06T16:36:15.103Z,15.20
2023-08-06T16:38:46.100Z,15.19
2023-08-06T16:41:16.988Z,15.19
2023-08-06T16:43:48.074Z,15.19
2023-08-06T16:46:19.333Z,15.16
2023-08-06T16:48:50.729Z,15.14
2023-08-06T16:51:21.818Z,15.13
2023-08-06T16:53:52.794Z,15.13
2023-08-06T16:56:24.183Z,15.13
2023-08-06T16:58:55.434Z,15.13
2023-08-06T17:01:26.593Z,15.12
2023-08-06T17:03:57.725Z,15.11
2023-08-06T17:06:28.685Z,15.09
2023-08-06T17:08:59.963Z,15.08
2023-08-06T17:11:34.375Z,15.07
2023-08-06T17:14:05.350Z,15.06
2023-08-06T17:16:36.336Z,15.06
2023-08-06T17:19:07.379Z,15.04
2023-08-06T17:21:39.168Z,15.03
2023-08-06T17:24:10.196Z,15.02
2023-08-06T17:26:41.296Z,15.02
2023-08-06T17:29:12.420Z,15.00
2023-08-06T17:31:43.791Z,14.97
2023-08-06T17:34:14.855Z,14.94
2023-08-06T17:36:46.000Z,14.90
2023-08-06T17:39:17.426Z,14.86
2023-08-06T17:41:49.083Z,14.81
2023-08-06T17:44:20.312Z,14.77
2023-08-06T17:46:51.715Z,14.74
2023-08-06T17:49:23.025Z,14.72
2023-08-06T17:51:54.090Z,14.69
2023-08-06T17:54:25.745Z,14.67
2023-08-06T17:56:59.298Z,14.66
2023-08-06T17:59:31.104Z,14.64
2023-08-06T18:02:02.261Z,14.63
2023-08-06T18:04:33.891Z,14.61
2023-08-06T18:07:05.037Z,14.62
2023-08-06T18:09:36.030Z,14.61
2023-08-06T18:12:09.721Z,14.59
2023-08-06T18:14:40.782Z,14.59
2023-08-06T18:17:12.120Z,14.56
2023-08-06T18:19:43.113Z,14.53
2023-08-06T18:22:14.111Z,14.49
2023-08-06T18:24:45.010Z,14.46
2023-08-06T18:27:18.812Z,14.40
2023-08-06T18:29:50.560Z,14.37
2023-08-06T18:32:22.323Z,14.35
2023-08-06T18:34:53.457Z,14.35
2023-08-06T18:37:24.652Z,14.35
2023-08-06T18:40:02.445Z,14.34
2023-08-06T18:42:34.545Z,14.34
2023-08-06T18:45:05.937Z,14.34
2023-08-06T18:47:36.883Z,14.34
2023-08-06T18:50:09.098Z,14.32
2023-08-06T18:52:40.268Z,14.32
2023-08-06T18:55:11.743Z,14.30
2023-08-06T18:57:42.860Z,14.31
2023-08-06T19:00:15.237Z,14.30
2023-08-06T19:02:46.384Z,14.27
2023-08-06T19:05:17.725Z,14.26
2023-08-06T19:07:48.597Z,14.26
2023-08-06T19:10:19.824Z,14.26
2023-08-06T19:12:50.855Z,14.25
2023-08-06T19:15:21.948Z,14.23
2023-08-06T19:17:52.876Z,14.19
2023-08-06T19:20:24.045Z,14.17
2023-08-06T19:22:55.152Z,14.15
2023-08-06T19:25:26.188Z,14.12
2023-08-06T19:27:57.243Z,14.10
2023-08-06T19:30:29.140Z,14.08
2023-08-06T19:33:00.117Z,14.08
2023-08-06T19:35:31.133Z,14.09
2023-08-06T19:38:02.255Z,14.10
2023-08-06T19:40:33.440Z,14.12
2023-08-06T19:43:04.534Z,14.14
2023-08-06T19:45:35.580Z,14.14
2023-08-06T19:48:07.499Z,14.15
2023-08-06T19:50:38.517Z,14.15
2023-08-06T19:53:09.497Z,14.15
2023-08-06T19:55:45.824Z,14.14
2023-08-06T19:58:17.022Z,14.10
2023-08-06T20:00:48.117Z,14.06
2023-08-06T20:03:21.986Z,14.02
2023-08-06T20:05:53.411Z,14.00
2023-08-06T20:08:24.425Z,13.97
2023-08-06T20:10:58.130Z,13.93
2023-08-06T20:13:29.184Z,13.87
2023-08-06T20:16:01.628Z,13.85
2023-08-06T20:18:32.790Z,13.83
2023-08-06T20:21:03.658Z,13.83
2023-08-06T20:23:35.074Z,13.84
2023-08-06T20:26:06.406Z,13.85
2023-08-06T20:28:37.464Z,13.87
2023-08-06T20:31:08.590Z,13.87
2023-08-06T20:33:39.744Z,13.87
2023-08-06T20:36:10.640Z,13.87
2023-08-06T20:38:44.797Z,13.87
2023-08-06T20:41:16.182Z,13.87
2023-08-06T20:43:47.501Z,13.86
2023-08-06T20:46:18.390Z,13.85
2023-08-06T20:48:49.712Z,13.84
2023-08-06T20:51:20.722Z,13.84
2023-08-06T20:53:51.860Z,13.83
2023-08-06T20:56:22.779Z,13.82
2023-08-06T20:58:53.720Z,13.82
2023-08-06T21:01:25.036Z,13.82
2023-08-06T21:03:55.980Z,13.82
2023-08-06T21:06:27.081Z,13.81
2023-08-06T21:08:57.932Z,13.81
2023-08-06T21:11:29.306Z,13.81
2023-08-06T21:14:00.422Z,13.80
2023-08-06T21:16:32.160Z,13.79
2023-08-06T21:19:05.670Z,13.77
2023-08-06T21:21:37.527Z,13.76
2023-08-06T21:24:09.832Z,13.74
2023-08-06T21:26:40.853Z,13.71
2023-08-06T21:29:12.183Z,13.68
2023-08-06T21:31:43.244Z,13.67
2023-08-06T21:34:14.853Z,13.66
2023-08-06T21:36:45.948Z,13.66
2023-08-06T21:39:17.369Z,13.66
2023-08-06T21:41:48.532Z,13.66
2023-08-06T21:44:19.587Z,13.66
2023-08-06T21:46:50.658Z,13.65
2023-08-06T21:49:22.099Z,13.65
2023-08-06T21:51:53.468Z,13.65
2023-08-06T21:54:24.707Z,13.65
2023-08-06T21:56:55.663Z,13.65
2023-08-06T21:59:26.767Z,13.66
2023-08-06T22:01:58.012Z,13.66
2023-08-06T22:04:29.274Z,13.66
2023-08-06T22:07:00.258Z,13.67
2023-08-06T22:09:31.249Z,13.68
2023-08-06T22:12:02.289Z,13.68
2023-08-06T22:14:33.284Z,13.68
2023-08-06T22:17:04.378Z,13.67
2023-08-06T22:19:35.226Z,13.68
2023-08-06T22:22:06.776Z,13.68
2023-08-06T22:24:37.886Z,13.69
2023-08-06T22:27:09.656Z,13.69
2023-08-06T22:29:40.996Z,13.69
2023-08-06T22:32:12.271Z,13.69
2023-08-06T22:34:43.621Z,13.68
2023-08-06T22:37:14.663Z,13.68
2023-08-06T22:39:46.083Z,13.67
2023-08-06T22:42:17.146Z,13.67
2023-08-06T22:44:48.294Z,13.65
2023-08-06T22:47:21.037Z,13.65
2023-08-06T22:49:52.289Z,13.65
2023-08-06T22:52:23.175Z,13.64
2023-08-06T22:55:08.691Z,13.64
2023-08-06T22:57:43.165Z,13.63
2023-08-06T23:00:16.361Z,13.62
2023-08-06T23:02:58.784Z,13.61
2023-08-06T23:05:34.646Z,13.60
2023-08-06T23:08:05.937Z,13.58
2023-08-06T23:10:37.209Z,13.58
2023-08-06T23:13:09.663Z,13.58
2023-08-06T23:15:40.883Z,13.57
2023-08-06T23:18:11.998Z,13.56
2023-08-06T23:20:42.952Z,13.55
2023-08-06T23:23:14.022Z,13.54
2023-08-06T23:25:45.002Z,13.53
2023-08-06T23:28:16.212Z,13.52
2023-08-06T23:30:52.064Z,13.51
2023-08-06T23:33:23.361Z,13.49
2023-08-06T23:35:54.243Z,13.46
2023-08-06T23:38:28.157Z,13.44
2023-08-06T23:40:59.146Z,13.42
2023-08-06T23:43:30.795Z,13.40
2023-08-06T23:46:01.791Z,13.37
2023-08-06T23:48:33.131Z,13.36
2023-08-06T23:51:04.214Z,13.33
2023-08-06T23:53:35.693Z,13.32
2023-08-06T23:56:07.019Z,13.29
2023-08-06T23:58:38.071Z,13.27
